createdAt,value
2023-04-10T00:01:04.000Z,27.00
2023-04-10T00:16:08.944Z,28.70
2023-04-10T00:31:13.106Z,31.40
2023-04-10T00:46:17.701Z,28.00
2023-04-10T01:01:22.133Z,27.00
2023-04-10T01:16:34.348Z,25.50
2023-04-10T01:31:50.913Z,24.50
2023-04-10T01:46:58.115Z,22.80
2023-04-10T02:02:16.112Z,16.30
2023-04-10T02:17:29.433Z,18.70
2023-04-10T02:32:34.014Z,27.40
2023-04-10T02:47:52.627Z,29.00
2023-04-10T03:18:28.413Z,20.80
2023-04-10T03:49:04.603Z,20.70
2023-04-10T04:04:08.972Z,19.60
2023-04-10T04:19:27.041Z,21.70
2023-04-10T04:34:31.116Z,25.30
2023-04-10T04:49:36.045Z,24.60
2023-04-10T05:19:58.540Z,22.20
2023-04-10T05:35:02.740Z,24.70
2023-04-10T05:50:08.236Z,22.10
2023-04-10T06:05:12.446Z,20.30
2023-04-10T06:20:17.077Z,20.80
2023-04-10T06:35:21.762Z,21.50
2023-04-10T06:50:26.609Z,18.60
2023-04-10T07:05:30.896Z,20.30
2023-04-10T07:20:36.493Z,20.40
2023-04-10T07:50:59.686Z,25.80
2023-04-10T08:06:04.371Z,34.90
2023-04-10T08:36:40.584Z,32.60
2023-04-10T08:51:57.271Z,34.10
2023-04-10T09:07:01.757Z,36.70
2023-04-10T09:22:06.939Z,30.10
2023-04-10T09:37:11.275Z,34.50
2023-04-10T09:52:23.418Z,40.00
2023-04-10T10:07:42.121Z,30.70
2023-04-10T10:22:49.022Z,35.60
2023-04-10T10:37:56.008Z,35.00
2023-04-10T10:53:02.759Z,32.10
2023-04-10T11:08:06.913Z,30.10
2023-04-10T11:23:13.504Z,34.00
2023-04-10T11:38:18.779Z,36.70
2023-04-10T11:53:23.517Z,24.90
2023-04-10T12:08:51.331Z,33.90
2023-04-10T12:39:27.213Z,32.50
2023-04-10T12:54:37.626Z,15.40
2023-04-10T13:09:41.977Z,12.00
2023-04-10T13:24:46.916Z,14.50
2023-04-10T13:40:06.172Z,17.80
2023-04-10T13:55:11.638Z,15.60
2023-04-10T14:10:16.227Z,12.40
2023-04-10T14:25:21.374Z,11.80
2023-04-10T14:40:26.188Z,9.90
2023-04-10T14:55:44.987Z,12.70
2023-04-10T15:26:17.084Z,13.40
2023-04-10T15:41:23.113Z,13.00
2023-04-10T16:12:13.920Z,13.10
2023-04-10T16:27:18.535Z,15.00
2023-04-10T16:42:23.016Z,14.40
2023-04-10T16:57:29.830Z,13.70
2023-04-10T17:12:34.268Z,14.80
2023-04-10T17:43:23.733Z,13.20
2023-04-10T17:58:28.079Z,22.70
2023-04-10T18:13:47.819Z,26.00
2023-04-10T18:28:52.297Z,28.90
2023-04-10T18:44:04.736Z,26.20
2023-04-10T19:14:28.625Z,46.20
2023-04-10T19:29:33.417Z,38.90
2023-04-10T19:44:38.138Z,34.00
2023-04-10T19:59:43.411Z,24.90
2023-04-10T20:14:47.729Z,28.90
2023-04-10T20:29:52.427Z,27.20
2023-04-10T20:44:57.076Z,29.40
2023-04-10T21:00:02.079Z,26.70
2023-04-10T21:15:07.425Z,31.80
2023-04-10T21:30:12.439Z,34.30
2023-04-10T21:45:17.418Z,32.80
2023-04-10T22:00:22.985Z,26.90
2023-04-10T22:15:28.209Z,30.70
2023-04-10T22:45:53.584Z,35.50
2023-04-10T23:16:18.421Z,36.10
2023-04-10T23:31:22.766Z,37.20
